EZY57TR LXGB-EGGD
Flight info
| Callsign | EZY57TR |
|---|---|
| Flight time | N/A |
| Altitude | 36000 |
| Route | PIMOS M985 MGA DCT BLN DCT MORAL DCT BEXID DCT VTB DCT SIE DCT XERMA DCT ARLUN DCT BUGIX DCT UNGAS DCT DELOG DCT NOVAN DCT RUSIB DCT NOZHU/N0399F290 DCT SHIRI DCT TOJAQ |
| Aircraft | A320/M-SDE2E3FGHIJ1RWXYZ/LB1 |
Departure
| Time | 2026-05-04 21:41 |
|---|---|
| Airport | Gibraltar Airport (LXGB) |
Arrival
| Time | N/A |
|---|---|
| Airport | Bristol Airport (EGGD) |
| Time | Latitude | Longitude | Altitude | Speed | Heading |
|---|---|---|---|---|---|
| 2026-05-04 21:19 | 36.15306 | -5.34675 | 17 ft | 0 kts | 358° |
| 2026-05-04 21:34 | 36.15281 | -5.34674 | 18 ft | 4 kts | 358° |
| 2026-05-04 21:34 | 36.15254 | -5.34671 | 19 ft | 4 kts | 353° |
| 2026-05-04 21:34 | 36.15241 | -5.34669 | 22 ft | 0 kts | 359° |
| 2026-05-04 21:34 | 36.15238 | -5.34668 | 23 ft | 2 kts | 18° |
| 2026-05-04 21:35 | 36.15225 | -5.34678 | 20 ft | 0 kts | 82° |
| 2026-05-04 21:36 | 36.15222 | -5.34674 | 20 ft | 5 kts | 117° |
| 2026-05-04 21:36 | 36.15152 | -5.34661 | 20 ft | 10 kts | 157° |
| 2026-05-04 21:36 | 36.15139 | -5.34589 | 19 ft | 9 kts | 92° |
| 2026-05-04 21:37 | 36.15138 | -5.34504 | 17 ft | 12 kts | 90° |
| 2026-05-04 21:37 | 36.15142 | -5.34370 | 15 ft | 20 kts | 88° |
| 2026-05-04 21:37 | 36.15148 | -5.34181 | 16 ft | 18 kts | 89° |
| 2026-05-04 21:37 | 36.15186 | -5.34048 | 17 ft | 14 kts | 79° |
| 2026-05-04 21:38 | 36.15154 | -5.34036 | 17 ft | 4 kts | 262° |
| 2026-05-04 21:38 | 36.15155 | -5.34045 | 17 ft | 0 kts | 269° |
| 2026-05-04 21:40 | 36.15155 | -5.34048 | 17 ft | 3 kts | 269° |
| 2026-05-04 21:40 | 36.15147 | -5.34333 | 15 ft | 75 kts | 268° |
| 2026-05-04 21:40 | 36.15117 | -5.35289 | 24 ft | 144 kts | 266° |
| 2026-05-04 21:40 | 36.15094 | -5.36719 | 326 ft | 174 kts | 268° |
| 2026-05-04 21:41 | 36.15061 | -5.38153 | 1294 ft | 160 kts | 270° |
| 2026-05-04 21:41 | 36.15031 | -5.39609 | 1841 ft | 184 kts | 269° |
| 2026-05-04 21:41 | 36.14350 | -5.40908 | 2569 ft | 197 kts | 204° |
| 2026-05-04 21:41 | 36.13030 | -5.40456 | 2879 ft | 224 kts | 114° |
| 2026-05-04 21:42 | 36.13165 | -5.38604 | 2542 ft | 240 kts | 49° |
| 2026-05-04 21:42 | 36.14606 | -5.37311 | 1376 ft | 269 kts | 24° |
| 2026-05-04 21:42 | 36.16355 | -5.36287 | 835 ft | 275 kts | 30° |
| 2026-05-04 21:42 | 36.17346 | -5.34492 | 1116 ft | 245 kts | 82° |
| 2026-05-04 21:43 | 36.17207 | -5.32540 | 1495 ft | 209 kts | 97° |
| 2026-05-04 21:43 | 36.17034 | -5.30767 | 1964 ft | 212 kts | 90° |
| 2026-05-04 21:43 | 36.17089 | -5.28930 | 2558 ft | 216 kts | 82° |
| 2026-05-04 21:43 | 36.17276 | -5.27062 | 3222 ft | 219 kts | 75° |
| 2026-05-04 21:44 | 36.17677 | -5.25270 | 3993 ft | 213 kts | 68° |
| 2026-05-04 21:44 | 36.18152 | -5.23467 | 4456 ft | 229 kts | 66° |
| 2026-05-04 21:44 | 36.18877 | -5.21653 | 4881 ft | 244 kts | 48° |
| 2026-05-04 21:44 | 36.20180 | -5.20235 | 5289 ft | 258 kts | 31° |
| 2026-05-04 21:45 | 36.21718 | -5.19035 | 5962 ft | 264 kts | 28° |
| 2026-05-04 21:45 | 36.23321 | -5.17859 | 6663 ft | 271 kts | 25° |
| 2026-05-04 21:45 | 36.24964 | -5.16711 | 7472 ft | 270 kts | 25° |
| 2026-05-04 21:45 | 36.26553 | -5.15522 | 8396 ft | 264 kts | 29° |
| 2026-05-04 21:46 | 36.28089 | -5.14314 | 9317 ft | 259 kts | 28° |
| 2026-05-04 21:46 | 36.29620 | -5.13165 | 10141 ft | 254 kts | 24° |
| 2026-05-04 21:46 | 36.31152 | -5.12112 | 10831 ft | 253 kts | 23° |
| 2026-05-04 21:46 | 36.32693 | -5.11008 | 11199 ft | 267 kts | 27° |
| 2026-05-04 21:47 | 36.34328 | -5.09742 | 11453 ft | 284 kts | 26° |
| 2026-05-04 21:47 | 36.36073 | -5.08595 | 11727 ft | 287 kts | 20° |
| 2026-05-04 21:47 | 36.37875 | -5.07423 | 12229 ft | 297 kts | 25° |
| 2026-05-04 21:47 | 36.39655 | -5.06115 | 12976 ft | 297 kts | 28° |
| 2026-05-04 21:48 | 36.41401 | -5.04741 | 13685 ft | 299 kts | 26° |
| 2026-05-04 21:48 | 36.43222 | -5.03451 | 14260 ft | 303 kts | 23° |
| 2026-05-04 21:48 | 36.45084 | -5.02148 | 14686 ft | 314 kts | 29° |
| 2026-05-04 21:48 | 36.46945 | -5.00627 | 15025 ft | 328 kts | 28° |
| 2026-05-04 21:49 | 36.48927 | -4.99052 | 15146 ft | 349 kts | 30° |
| 2026-05-04 21:49 | 36.50935 | -4.97196 | 15271 ft | 371 kts | 36° |
| 2026-05-04 21:49 | 36.52973 | -4.95101 | 15401 ft | 389 kts | 36° |
| 2026-05-04 21:49 | 36.55125 | -4.92949 | 15526 ft | 406 kts | 34° |
| 2026-05-04 21:50 | 36.57442 | -4.90813 | 15650 ft | 422 kts | 32° |
| 2026-05-04 21:50 | 36.59856 | -4.88768 | 15775 ft | 433 kts | 31° |
| 2026-05-04 21:50 | 36.62429 | -4.86717 | 15901 ft | 445 kts | 28° |
| 2026-05-04 21:50 | 36.65083 | -4.84668 | 16225 ft | 451 kts | 28° |
| 2026-05-04 21:51 | 36.67767 | -4.82609 | 16639 ft | 455 kts | 28° |
| 2026-05-04 21:51 | 36.70466 | -4.80522 | 17067 ft | 458 kts | 28° |
| 2026-05-04 21:51 | 36.73176 | -4.78396 | 17487 ft | 461 kts | 29° |
| 2026-05-04 21:51 | 36.76014 | -4.76560 | 17906 ft | 460 kts | 19° |
| 2026-05-04 21:52 | 36.78968 | -4.75002 | 18313 ft | 462 kts | 19° |
| 2026-05-04 21:52 | 36.81937 | -4.73435 | 18689 ft | 465 kts | 19° |
| 2026-05-04 21:52 | 36.84922 | -4.71856 | 19057 ft | 467 kts | 19° |
| 2026-05-04 21:52 | 36.87919 | -4.70266 | 19426 ft | 469 kts | 19° |
| 2026-05-04 21:53 | 36.90927 | -4.68666 | 19806 ft | 471 kts | 19° |
| 2026-05-04 21:53 | 36.93945 | -4.67061 | 20167 ft | 472 kts | 19° |
| 2026-05-04 21:53 | 36.96935 | -4.65472 | 20511 ft | 474 kts | 18° |
| 2026-05-04 21:53 | 36.99980 | -4.63858 | 20845 ft | 476 kts | 18° |
| 2026-05-04 21:54 | 37.03040 | -4.62232 | 21178 ft | 479 kts | 18° |
| 2026-05-04 21:54 | 37.06107 | -4.60598 | 21499 ft | 481 kts | 18° |
| 2026-05-04 21:54 | 37.09189 | -4.58955 | 21802 ft | 482 kts | 18° |
| 2026-05-04 21:54 | 37.12284 | -4.57301 | 22089 ft | 484 kts | 19° |
| 2026-05-04 21:55 | 37.15392 | -4.55638 | 22384 ft | 487 kts | 18° |
| 2026-05-04 21:55 | 37.18514 | -4.53968 | 22646 ft | 489 kts | 18° |
| 2026-05-04 21:55 | 37.21654 | -4.52287 | 22919 ft | 491 kts | 18° |
| 2026-05-04 21:55 | 37.24806 | -4.50599 | 23192 ft | 494 kts | 18° |
| 2026-05-04 21:56 | 37.27969 | -4.48904 | 23462 ft | 495 kts | 18° |
| 2026-05-04 21:56 | 37.31146 | -4.47199 | 23713 ft | 497 kts | 18° |
| 2026-05-04 21:56 | 37.34327 | -4.45489 | 24000 ft | 497 kts | 18° |
| 2026-05-04 21:56 | 37.37505 | -4.43777 | 24330 ft | 496 kts | 18° |
| 2026-05-04 21:57 | 37.40676 | -4.42067 | 24692 ft | 496 kts | 18° |
| 2026-05-04 21:57 | 37.43846 | -4.40352 | 25022 ft | 496 kts | 18° |
| 2026-05-04 21:57 | 37.47009 | -4.38638 | 25352 ft | 495 kts | 18° |
| 2026-05-04 21:57 | 37.50173 | -4.36924 | 25666 ft | 495 kts | 18° |
| 2026-05-04 21:58 | 37.53337 | -4.35211 | 25998 ft | 494 kts | 17° |
| 2026-05-04 21:58 | 37.56493 | -4.33506 | 26301 ft | 494 kts | 17° |
| 2026-05-04 21:58 | 37.59650 | -4.31802 | 26630 ft | 493 kts | 17° |
| 2026-05-04 21:58 | 37.62805 | -4.30098 | 26977 ft | 493 kts | 17° |
| 2026-05-04 21:59 | 37.65957 | -4.28396 | 27359 ft | 493 kts | 17° |
| 2026-05-04 21:59 | 37.69108 | -4.26694 | 27709 ft | 492 kts | 17° |
| 2026-05-04 21:59 | 37.72253 | -4.24993 | 28056 ft | 492 kts | 17° |
| 2026-05-04 21:59 | 37.75395 | -4.23292 | 28405 ft | 491 kts | 17° |
| 2026-05-04 22:00 | 37.78536 | -4.21587 | 28767 ft | 491 kts | 17° |
| 2026-05-04 22:00 | 37.81630 | -4.19900 | 29119 ft | 491 kts | 17° |
| 2026-05-04 22:00 | 37.84760 | -4.18190 | 29469 ft | 490 kts | 17° |
| 2026-05-04 22:00 | 37.87889 | -4.16475 | 29831 ft | 490 kts | 16° |
| 2026-05-04 22:01 | 37.91011 | -4.14768 | 30231 ft | 489 kts | 16° |
| 2026-05-04 22:01 | 37.94130 | -4.13062 | 30549 ft | 488 kts | 16° |
| 2026-05-04 22:01 | 37.97244 | -4.11359 | 30853 ft | 487 kts | 16° |
| 2026-05-04 22:01 | 38.00351 | -4.09657 | 31155 ft | 486 kts | 16° |
| 2026-05-04 22:02 | 38.03455 | -4.07953 | 31438 ft | 486 kts | 16° |
| 2026-05-04 22:02 | 38.06555 | -4.06249 | 31739 ft | 485 kts | 16° |
| 2026-05-04 22:02 | 38.09654 | -4.04546 | 32035 ft | 485 kts | 16° |
| 2026-05-04 22:02 | 38.12748 | -4.02848 | 32367 ft | 484 kts | 16° |
| 2026-05-04 22:03 | 38.15845 | -4.01145 | 32618 ft | 485 kts | 15° |
| 2026-05-04 22:03 | 38.18932 | -3.99442 | 32904 ft | 484 kts | 15° |
| 2026-05-04 22:03 | 38.22023 | -3.97736 | 33221 ft | 484 kts | 15° |
| 2026-05-04 22:03 | 38.25108 | -3.96034 | 33526 ft | 483 kts | 15° |
| 2026-05-04 22:04 | 38.28187 | -3.94334 | 33824 ft | 483 kts | 15° |
| 2026-05-04 22:04 | 38.31273 | -3.92632 | 34078 ft | 483 kts | 15° |
| 2026-05-04 22:04 | 38.34351 | -3.90931 | 34306 ft | 482 kts | 15° |
| 2026-05-04 22:04 | 38.37429 | -3.89226 | 34570 ft | 482 kts | 15° |
| 2026-05-04 22:05 | 38.40500 | -3.87524 | 34829 ft | 482 kts | 15° |
| 2026-05-04 22:05 | 38.43574 | -3.85820 | 34984 ft | 482 kts | 15° |
| 2026-05-04 22:05 | 38.46651 | -3.84112 | 35029 ft | 482 kts | 15° |
| 2026-05-04 22:06 | 38.52801 | -3.80690 | 35025 ft | 482 kts | 15° |
| 2026-05-04 22:06 | 38.58950 | -3.77263 | 35028 ft | 482 kts | 15° |
| 2026-05-04 22:07 | 38.65063 | -3.73852 | 35027 ft | 483 kts | 15° |
| 2026-05-04 22:07 | 38.71220 | -3.70410 | 35029 ft | 483 kts | 15° |
| 2026-05-04 22:08 | 38.77375 | -3.66962 | 35033 ft | 483 kts | 15° |
| 2026-05-04 22:08 | 38.83530 | -3.63499 | 35033 ft | 483 kts | 15° |
| 2026-05-04 22:09 | 38.89696 | -3.60035 | 35033 ft | 484 kts | 15° |
| 2026-05-04 22:09 | 38.95873 | -3.56557 | 35032 ft | 485 kts | 15° |
| 2026-05-04 22:10 | 39.02185 | -3.54084 | 35030 ft | 465 kts | 359° |
| 2026-05-04 22:10 | 39.08560 | -3.53373 | 35048 ft | 460 kts | 354° |
| 2026-05-04 22:11 | 39.14940 | -3.52746 | 35029 ft | 460 kts | 355° |
| 2026-05-04 22:11 | 39.21329 | -3.52109 | 35029 ft | 460 kts | 355° |
| 2026-05-04 22:12 | 39.27717 | -3.51471 | 35028 ft | 460 kts | 355° |
| 2026-05-04 22:12 | 39.34116 | -3.50826 | 35015 ft | 462 kts | 355° |
| 2026-05-04 22:13 | 39.40524 | -3.50185 | 35018 ft | 462 kts | 354° |
| 2026-05-04 22:13 | 39.46939 | -3.49544 | 35019 ft | 462 kts | 355° |
| 2026-05-04 22:14 | 39.53355 | -3.48893 | 35064 ft | 463 kts | 355° |
| 2026-05-04 22:14 | 39.59781 | -3.48249 | 35017 ft | 464 kts | 355° |
| 2026-05-04 22:15 | 39.66220 | -3.47600 | 35020 ft | 464 kts | 355° |
| 2026-05-04 22:15 | 39.72655 | -3.46952 | 35011 ft | 464 kts | 355° |
| 2026-05-04 22:16 | 39.79073 | -3.46520 | 35006 ft | 455 kts | 347° |
| 2026-05-04 22:16 | 39.85355 | -3.47127 | 35010 ft | 453 kts | 346° |
| 2026-05-04 22:17 | 39.90584 | -3.47655 | 35010 ft | 453 kts | 346° |
| 2026-05-04 22:17 | 39.96869 | -3.48296 | 35011 ft | 453 kts | 346° |
| 2026-05-04 22:18 | 40.03167 | -3.48947 | 35005 ft | 455 kts | 346° |
| 2026-05-04 22:18 | 40.09481 | -3.49588 | 35014 ft | 455 kts | 346° |
| 2026-05-04 22:19 | 40.15799 | -3.50226 | 35018 ft | 456 kts | 346° |
| 2026-05-04 22:19 | 40.22120 | -3.50864 | 35032 ft | 456 kts | 346° |
| 2026-05-04 22:20 | 40.28458 | -3.51508 | 35024 ft | 457 kts | 346° |
| 2026-05-04 22:20 | 40.34794 | -3.52153 | 35002 ft | 457 kts | 346° |
| 2026-05-04 22:21 | 40.41139 | -3.52798 | 35002 ft | 457 kts | 346° |
| 2026-05-04 22:21 | 40.47489 | -3.53446 | 35000 ft | 458 kts | 347° |
| 2026-05-04 22:22 | 40.53842 | -3.54107 | 35002 ft | 458 kts | 347° |
| 2026-05-04 22:22 | 40.60204 | -3.54768 | 35028 ft | 459 kts | 347° |
| 2026-05-04 22:23 | 40.66568 | -3.55416 | 35024 ft | 459 kts | 347° |
| 2026-05-04 22:23 | 40.72930 | -3.56076 | 35023 ft | 458 kts | 347° |
| 2026-05-04 22:24 | 40.79293 | -3.56738 | 35019 ft | 459 kts | 347° |
| 2026-05-04 22:24 | 40.85655 | -3.57394 | 35036 ft | 458 kts | 347° |
| 2026-05-04 22:25 | 40.92026 | -3.58054 | 35027 ft | 460 kts | 347° |
| 2026-05-04 22:25 | 40.98407 | -3.58719 | 35032 ft | 460 kts | 347° |
| 2026-05-04 22:26 | 41.04742 | -3.59381 | 35035 ft | 460 kts | 347° |
| 2026-05-04 22:26 | 41.11130 | -3.60048 | 35030 ft | 462 kts | 347° |
| 2026-05-04 22:27 | 41.17560 | -3.60668 | 35039 ft | 465 kts | 349° |
| 2026-05-04 22:27 | 41.24052 | -3.60866 | 35043 ft | 468 kts | 352° |
| 2026-05-04 22:28 | 41.30570 | -3.60892 | 35060 ft | 469 kts | 352° |
| 2026-05-04 22:28 | 41.37092 | -3.60994 | 35043 ft | 469 kts | 352° |
| 2026-05-04 22:29 | 41.43617 | -3.61174 | 35043 ft | 469 kts | 351° |
| 2026-05-04 22:29 | 41.50137 | -3.61359 | 35043 ft | 469 kts | 352° |
| 2026-05-04 22:30 | 41.56681 | -3.61437 | 35035 ft | 471 kts | 353° |
| 2026-05-04 22:30 | 41.63246 | -3.61392 | 35040 ft | 472 kts | 354° |
| 2026-05-04 22:31 | 41.69816 | -3.61356 | 35042 ft | 472 kts | 353° |
| 2026-05-04 22:31 | 41.76382 | -3.61352 | 35038 ft | 472 kts | 353° |
| 2026-05-04 22:32 | 41.82958 | -3.61368 | 35039 ft | 472 kts | 353° |
| 2026-05-04 22:32 | 41.89533 | -3.61376 | 35041 ft | 473 kts | 353° |
| 2026-05-04 22:33 | 41.96109 | -3.61378 | 35041 ft | 472 kts | 354° |
| 2026-05-04 22:33 | 42.02686 | -3.61376 | 35039 ft | 472 kts | 354° |
| 2026-05-04 22:34 | 42.09234 | -3.61643 | 35040 ft | 470 kts | 351° |
| 2026-05-04 22:34 | 42.15709 | -3.62164 | 35055 ft | 469 kts | 351° |
| 2026-05-04 22:35 | 42.22234 | -3.62682 | 35042 ft | 470 kts | 351° |
| 2026-05-04 22:35 | 42.28766 | -3.63109 | 35026 ft | 470 kts | 352° |
| 2026-05-04 22:36 | 42.35300 | -3.63510 | 35050 ft | 469 kts | 351° |
| 2026-05-04 22:36 | 42.41738 | -3.64683 | 35027 ft | 466 kts | 346° |
| 2026-05-04 22:37 | 42.48154 | -3.65977 | 35035 ft | 466 kts | 346° |
| 2026-05-04 22:37 | 42.54575 | -3.67264 | 35037 ft | 466 kts | 347° |
| 2026-05-04 22:38 | 42.61003 | -3.68547 | 35047 ft | 467 kts | 347° |
| 2026-05-04 22:38 | 42.67433 | -3.69833 | 35055 ft | 467 kts | 347° |
| 2026-05-04 22:39 | 42.73880 | -3.71033 | 35062 ft | 468 kts | 348° |
| 2026-05-04 22:39 | 42.80354 | -3.72090 | 35068 ft | 468 kts | 349° |
| 2026-05-04 22:40 | 42.86820 | -3.73155 | 35067 ft | 468 kts | 348° |
| 2026-05-04 22:40 | 42.93279 | -3.74250 | 35065 ft | 468 kts | 348° |
| 2026-05-04 22:41 | 42.99736 | -3.75368 | 35067 ft | 468 kts | 348° |
| 2026-05-04 22:41 | 43.06198 | -3.76489 | 35069 ft | 468 kts | 348° |
| 2026-05-04 22:42 | 43.12660 | -3.77596 | 35068 ft | 468 kts | 348° |
| 2026-05-04 22:42 | 43.19074 | -3.78695 | 35077 ft | 468 kts | 349° |
| 2026-05-04 22:43 | 43.25530 | -3.79813 | 35079 ft | 467 kts | 349° |
| 2026-05-04 22:43 | 43.31984 | -3.80934 | 35082 ft | 468 kts | 349° |
| 2026-05-04 22:44 | 43.38438 | -3.82062 | 35092 ft | 467 kts | 349° |
| 2026-05-04 22:44 | 43.44889 | -3.83188 | 35084 ft | 467 kts | 349° |
| 2026-05-04 22:45 | 43.51333 | -3.84309 | 35085 ft | 467 kts | 349° |
| 2026-05-04 22:45 | 43.60994 | -3.85995 | 35046 ft | 467 kts | 349° |
| 2026-05-04 22:46 | 43.67441 | -3.87132 | 35049 ft | 467 kts | 349° |
| 2026-05-04 22:46 | 43.73889 | -3.88268 | 35046 ft | 467 kts | 350° |
| 2026-05-04 22:47 | 43.80345 | -3.89401 | 35041 ft | 467 kts | 350° |
| 2026-05-04 22:47 | 43.86788 | -3.90538 | 35042 ft | 467 kts | 350° |
| 2026-05-04 22:48 | 43.93245 | -3.91688 | 35042 ft | 467 kts | 350° |
| 2026-05-04 22:48 | 43.99698 | -3.92826 | 35041 ft | 468 kts | 350° |
| 2026-05-04 22:49 | 44.06157 | -3.93963 | 35035 ft | 468 kts | 350° |
| 2026-05-04 22:49 | 44.12612 | -3.95120 | 35037 ft | 468 kts | 350° |
| 2026-05-04 22:50 | 44.19077 | -3.96280 | 35034 ft | 469 kts | 351° |
| 2026-05-04 22:50 | 44.25549 | -3.97435 | 35032 ft | 469 kts | 351° |
| 2026-05-04 22:51 | 44.32035 | -3.98518 | 35028 ft | 470 kts | 355° |
| 2026-05-04 22:51 | 44.38581 | -3.97984 | 35030 ft | 473 kts | 4° |
| 2026-05-04 22:52 | 44.45143 | -3.97050 | 35029 ft | 474 kts | 4° |
| 2026-05-04 22:52 | 44.51700 | -3.96118 | 35030 ft | 474 kts | 4° |
| 2026-05-04 22:53 | 44.58261 | -3.95192 | 35030 ft | 473 kts | 4° |
| 2026-05-04 22:53 | 44.64808 | -3.94274 | 35029 ft | 473 kts | 4° |
| 2026-05-04 22:54 | 44.71349 | -3.93344 | 35029 ft | 473 kts | 4° |
| 2026-05-04 22:54 | 44.77890 | -3.92421 | 35029 ft | 472 kts | 4° |
| 2026-05-04 22:55 | 44.84430 | -3.91484 | 35030 ft | 472 kts | 4° |
| 2026-05-04 22:55 | 44.90973 | -3.90555 | 35029 ft | 472 kts | 4° |
| 2026-05-04 22:56 | 44.97504 | -3.89629 | 35025 ft | 470 kts | 4° |
| 2026-05-04 22:56 | 45.04009 | -3.88696 | 35027 ft | 470 kts | 4° |
| 2026-05-04 22:57 | 45.10465 | -3.87763 | 35026 ft | 470 kts | 5° |
| 2026-05-04 22:57 | 45.16959 | -3.86823 | 35027 ft | 469 kts | 5° |
| 2026-05-04 22:58 | 45.23448 | -3.85893 | 35018 ft | 469 kts | 5° |
| 2026-05-04 22:58 | 45.29947 | -3.84958 | 35021 ft | 470 kts | 5° |
| 2026-05-04 22:59 | 45.36454 | -3.84013 | 35020 ft | 469 kts | 5° |
| 2026-05-04 22:59 | 45.42952 | -3.83079 | 35022 ft | 469 kts | 5° |
| 2026-05-04 23:00 | 45.49485 | -3.82132 | 35025 ft | 477 kts | 5° |
| 2026-05-04 23:00 | 45.56166 | -3.81154 | 35025 ft | 488 kts | 5° |
| 2026-05-04 23:01 | 45.62990 | -3.80150 | 35023 ft | 498 kts | 5° |
| 2026-05-04 23:01 | 45.69910 | -3.79157 | 35418 ft | 498 kts | 5° |
| 2026-05-04 23:02 | 45.73353 | -3.78713 | 35668 ft | 495 kts | 5° |
| 2026-05-04 23:02 | 45.76765 | -3.78312 | 35772 ft | 489 kts | 4° |
| 2026-05-04 23:02 | 45.80149 | -3.78058 | 35882 ft | 486 kts | 0° |
| 2026-05-04 23:02 | 45.83527 | -3.78018 | 35991 ft | 485 kts | 0° |
| 2026-05-04 23:03 | 45.86896 | -3.77943 | 36112 ft | 484 kts | 0° |
| 2026-05-04 23:03 | 45.90257 | -3.77862 | 36234 ft | 478 kts | 0° |
| 2026-05-04 23:03 | 45.93545 | -3.77789 | 36124 ft | 470 kts | 0° |
| 2026-05-04 23:03 | 45.95705 | -3.77748 | 35868 ft | 465 kts | 0° |
| 2026-05-04 23:04 | 45.98894 | -3.77690 | 36115 ft | 459 kts | 0° |
| 2026-05-04 23:04 | 46.02122 | -3.77631 | 35997 ft | 467 kts | 0° |
| 2026-05-04 23:04 | 46.08688 | -3.77513 | 36017 ft | 477 kts | 0° |
| 2026-05-04 23:05 | 46.15386 | -3.77401 | 36011 ft | 486 kts | 0° |
| 2026-05-04 23:05 | 46.22170 | -3.77297 | 36014 ft | 488 kts | 0° |
| 2026-05-04 23:06 | 46.28963 | -3.77193 | 36015 ft | 488 kts | 0° |
| 2026-05-04 23:06 | 46.35756 | -3.77112 | 36015 ft | 488 kts | 0° |
| 2026-05-04 23:07 | 46.42542 | -3.77054 | 36011 ft | 487 kts | 0° |
| 2026-05-04 23:07 | 46.49322 | -3.76999 | 36014 ft | 487 kts | 0° |
| 2026-05-04 23:08 | 46.56104 | -3.76955 | 36011 ft | 487 kts | 0° |
| 2026-05-04 23:08 | 46.62885 | -3.76922 | 36012 ft | 487 kts | 0° |
| 2026-05-04 23:09 | 46.69661 | -3.76888 | 36010 ft | 487 kts | 0° |
| 2026-05-04 23:09 | 46.76436 | -3.76854 | 36008 ft | 487 kts | 0° |
| 2026-05-04 23:10 | 46.83211 | -3.76821 | 36013 ft | 487 kts | 0° |
| 2026-05-04 23:10 | 46.89938 | -3.76790 | 36013 ft | 487 kts | 0° |
| 2026-05-04 23:11 | 46.96712 | -3.76780 | 36005 ft | 486 kts | 0° |
| 2026-05-04 23:11 | 47.03477 | -3.76783 | 36005 ft | 486 kts | 0° |
| 2026-05-04 23:12 | 47.10239 | -3.76786 | 36001 ft | 486 kts | 0° |
| 2026-05-04 23:12 | 47.17004 | -3.76802 | 35998 ft | 486 kts | 0° |
| 2026-05-04 23:13 | 47.23760 | -3.76829 | 35999 ft | 486 kts | 0° |
| 2026-05-04 23:13 | 47.30519 | -3.76858 | 35999 ft | 485 kts | 0° |
| 2026-05-04 23:14 | 47.37273 | -3.76901 | 35998 ft | 485 kts | 0° |
| 2026-05-04 23:14 | 47.44017 | -3.76958 | 35998 ft | 485 kts | 0° |
| 2026-05-04 23:15 | 47.50767 | -3.77018 | 35996 ft | 485 kts | 0° |
| 2026-05-04 23:15 | 47.57512 | -3.77087 | 35997 ft | 485 kts | 0° |
| 2026-05-04 23:16 | 47.64259 | -3.77163 | 35985 ft | 485 kts | 0° |
| 2026-05-04 23:16 | 47.71026 | -3.77221 | 35997 ft | 487 kts | 0° |
| 2026-05-04 23:17 | 47.77807 | -3.77280 | 36000 ft | 487 kts | 0° |
| 2026-05-04 23:17 | 47.84577 | -3.77344 | 36000 ft | 486 kts | 0° |
| 2026-05-04 23:18 | 47.91347 | -3.77408 | 36004 ft | 486 kts | 0° |
| 2026-05-04 23:18 | 47.98112 | -3.77473 | 36004 ft | 485 kts | 0° |
| 2026-05-04 23:19 | 48.04858 | -3.77545 | 36005 ft | 485 kts | 0° |
| 2026-05-04 23:19 | 48.11556 | -3.77615 | 36006 ft | 484 kts | 0° |
| 2026-05-04 23:20 | 48.18295 | -3.77687 | 36007 ft | 484 kts | 0° |
| 2026-05-04 23:20 | 48.25024 | -3.77760 | 36010 ft | 483 kts | 360° |
| 2026-05-04 23:21 | 48.31752 | -3.77979 | 36010 ft | 484 kts | 359° |
| 2026-05-04 23:21 | 48.38478 | -3.78304 | 36005 ft | 483 kts | 359° |
| 2026-05-04 23:22 | 48.45195 | -3.78624 | 36012 ft | 483 kts | 359° |
| 2026-05-04 23:22 | 48.51906 | -3.78917 | 36020 ft | 482 kts | 359° |
| 2026-05-04 23:23 | 48.58615 | -3.79192 | 36017 ft | 483 kts | 359° |
| 2026-05-04 23:23 | 48.65322 | -3.79477 | 36016 ft | 481 kts | 359° |
| 2026-05-04 23:24 | 48.72018 | -3.79761 | 36018 ft | 481 kts | 359° |
| 2026-05-04 23:24 | 48.78714 | -3.80053 | 36021 ft | 481 kts | 359° |
| 2026-05-04 23:25 | 48.85408 | -3.80346 | 36022 ft | 481 kts | 359° |
| 2026-05-04 23:25 | 48.92100 | -3.80641 | 36003 ft | 481 kts | 358° |
| 2026-05-04 23:26 | 48.98794 | -3.80983 | 36015 ft | 481 kts | 0° |
| 2026-05-04 23:26 | 49.05474 | -3.80693 | 36022 ft | 480 kts | 4° |
| 2026-05-04 23:27 | 49.12136 | -3.80063 | 36023 ft | 479 kts | 4° |
| 2026-05-04 23:27 | 49.18798 | -3.79522 | 36023 ft | 480 kts | 4° |
| 2026-05-04 23:28 | 49.25465 | -3.79113 | 36023 ft | 479 kts | 3° |
| 2026-05-04 23:28 | 49.32124 | -3.78751 | 36022 ft | 478 kts | 3° |
| 2026-05-04 23:29 | 49.38776 | -3.78371 | 36028 ft | 478 kts | 3° |
| 2026-05-04 23:29 | 49.45380 | -3.77947 | 36028 ft | 478 kts | 3° |
| 2026-05-04 23:30 | 49.52027 | -3.77519 | 36024 ft | 477 kts | 3° |
| 2026-05-04 23:30 | 49.58661 | -3.77103 | 36023 ft | 477 kts | 3° |
| 2026-05-04 23:31 | 49.65297 | -3.76719 | 36015 ft | 477 kts | 3° |
| 2026-05-04 23:31 | 49.71928 | -3.76296 | 36020 ft | 476 kts | 4° |
| 2026-05-04 23:32 | 49.78530 | -3.75542 | 36019 ft | 476 kts | 6° |
| 2026-05-04 23:32 | 49.85116 | -3.74637 | 36013 ft | 472 kts | 6° |
| 2026-05-04 23:33 | 49.88360 | -3.74210 | 35786 ft | 465 kts | 6° |
| 2026-05-04 23:33 | 49.91582 | -3.73815 | 35536 ft | 464 kts | 5° |
| 2026-05-04 23:33 | 49.94795 | -3.73442 | 35293 ft | 463 kts | 5° |
| 2026-05-04 23:33 | 49.97498 | -3.73138 | 35094 ft | 462 kts | 5° |
| 2026-05-04 23:34 | 50.00706 | -3.72774 | 34854 ft | 462 kts | 5° |
| 2026-05-04 23:34 | 50.03909 | -3.72406 | 34618 ft | 462 kts | 6° |
| 2026-05-04 23:34 | 50.07115 | -3.72029 | 34384 ft | 462 kts | 6° |
| 2026-05-04 23:34 | 50.10327 | -3.71643 | 34158 ft | 463 kts | 6° |
| 2026-05-04 23:35 | 50.13533 | -3.71253 | 33759 ft | 462 kts | 6° |
| 2026-05-04 23:35 | 50.16763 | -3.70859 | 32664 ft | 468 kts | 6° |
| 2026-05-04 23:35 | 50.20016 | -3.70463 | 31665 ft | 471 kts | 6° |
| 2026-05-04 23:35 | 50.23298 | -3.70068 | 30694 ft | 475 kts | 5° |
| 2026-05-04 23:36 | 50.26609 | -3.69673 | 29509 ft | 481 kts | 5° |
| 2026-05-04 23:36 | 50.29958 | -3.69273 | 28307 ft | 484 kts | 6° |
| 2026-05-04 23:36 | 50.33323 | -3.68870 | 27202 ft | 486 kts | 6° |
| 2026-05-04 23:36 | 50.36664 | -3.68470 | 25901 ft | 488 kts | 6° |
| 2026-05-04 23:37 | 50.40009 | -3.68071 | 24627 ft | 477 kts | 6° |
| 2026-05-04 23:37 | 50.43270 | -3.67649 | 23465 ft | 463 kts | 7° |
| 2026-05-04 23:37 | 50.46415 | -3.67124 | 22523 ft | 445 kts | 8° |
| 2026-05-04 23:37 | 50.49440 | -3.66531 | 21748 ft | 436 kts | 9° |
| 2026-05-04 23:38 | 50.52435 | -3.65905 | 20953 ft | 432 kts | 9° |
| 2026-05-04 23:38 | 50.55405 | -3.65277 | 20173 ft | 428 kts | 9° |
| 2026-05-04 23:38 | 50.58343 | -3.64670 | 19409 ft | 424 kts | 9° |
| 2026-05-04 23:38 | 50.61256 | -3.64088 | 18660 ft | 419 kts | 9° |
| 2026-05-04 23:39 | 50.64136 | -3.63530 | 17884 ft | 415 kts | 9° |
| 2026-05-04 23:39 | 50.66990 | -3.62992 | 17165 ft | 411 kts | 8° |
| 2026-05-04 23:39 | 50.69820 | -3.62466 | 16464 ft | 406 kts | 8° |
| 2026-05-04 23:39 | 50.72555 | -3.61959 | 16073 ft | 382 kts | 8° |
| 2026-05-04 23:40 | 50.75102 | -3.61484 | 15942 ft | 356 kts | 8° |
| 2026-05-04 23:40 | 50.77477 | -3.61031 | 15769 ft | 334 kts | 8° |
| 2026-05-04 23:40 | 50.79737 | -3.60593 | 15471 ft | 322 kts | 8° |
| 2026-05-04 23:40 | 50.81948 | -3.60161 | 15221 ft | 319 kts | 8° |
| 2026-05-04 23:41 | 50.84142 | -3.59731 | 14973 ft | 317 kts | 8° |
| 2026-05-04 23:41 | 50.86333 | -3.59303 | 14727 ft | 316 kts | 8° |
| 2026-05-04 23:41 | 50.88514 | -3.58881 | 14487 ft | 316 kts | 7° |
| 2026-05-04 23:41 | 50.90692 | -3.58459 | 14243 ft | 315 kts | 8° |
| 2026-05-04 23:42 | 50.92804 | -3.57636 | 14011 ft | 313 kts | 22° |
| 2026-05-04 23:42 | 50.94702 | -3.56020 | 13761 ft | 305 kts | 37° |
| 2026-05-04 23:42 | 50.96256 | -3.53801 | 13499 ft | 298 kts | 47° |
| 2026-05-04 23:42 | 50.97679 | -3.51421 | 13228 ft | 297 kts | 47° |
| 2026-05-04 23:43 | 50.99098 | -3.49060 | 12966 ft | 295 kts | 47° |
| 2026-05-04 23:43 | 51.00513 | -3.46714 | 12704 ft | 294 kts | 47° |
| 2026-05-04 23:43 | 51.01927 | -3.44370 | 12444 ft | 293 kts | 47° |
| 2026-05-04 23:43 | 51.03333 | -3.42041 | 12106 ft | 293 kts | 47° |
| 2026-05-04 23:44 | 51.04839 | -3.39856 | 11689 ft | 294 kts | 35° |
| 2026-05-04 23:44 | 51.06636 | -3.38325 | 11312 ft | 295 kts | 20° |
| 2026-05-04 23:44 | 51.08615 | -3.37590 | 11061 ft | 291 kts | 6° |
| 2026-05-04 23:44 | 51.10625 | -3.37250 | 10722 ft | 290 kts | 6° |
| 2026-05-04 23:45 | 51.12626 | -3.36906 | 10397 ft | 289 kts | 6° |
| 2026-05-04 23:45 | 51.14616 | -3.36559 | 10081 ft | 287 kts | 6° |
| 2026-05-04 23:45 | 51.16555 | -3.35907 | 9721 ft | 285 kts | 21° |
| 2026-05-04 23:45 | 51.18260 | -3.34451 | 9246 ft | 280 kts | 38° |
| 2026-05-04 23:46 | 51.19640 | -3.32248 | 8620 ft | 276 kts | 54° |
| 2026-05-04 23:46 | 51.20782 | -3.29799 | 7971 ft | 275 kts | 53° |